Time;durP1;ratioP1;P1;durP2;ratioP2;P2;SDS_P1;SDS_P2;PMS_P1;PMS_P2;Temp;Humidity;BMP_temperature;BMP_pressure;BME280_temperature;BME280_humidity;BME280_pressure;Samples;Min_cycle;Max_cycle;Signal;HPM_P1;HPM_P2
2023/12/25 00:00:54;;;;;;;12.13;7.30;;;;;;;8.49;68.67;96738.28;4947303;28;20277;-73
2023/12/25 00:03:21;;;;;;;12.17;7.40;;;;;;;8.46;69.02;96743.56;4948550;28;20248;-74
2023/12/25 00:05:51;;;;;;;14.13;8.17;;;;;;;8.16;70.07;96743.88;4948858;28;20296;-73
2023/12/25 00:08:18;;;;;;;14.87;7.07;;;;;;;8.10;70.52;96735.56;4948727;28;20215;-72
2023/12/25 00:10:45;;;;;;;10.27;7.00;;;;;;;8.16;70.59;96737.91;4947237;28;20653;-72
2023/12/25 00:13:13;;;;;;;13.00;8.20;;;;;;;8.13;70.65;96735.44;4948509;28;20312;-74
2023/12/25 00:15:40;;;;;;;14.97;9.00;;;;;;;8.07;70.24;96749.44;4947072;29;20621;-72
2023/12/25 00:18:07;;;;;;;16.83;9.90;;;;;;;7.90;70.85;96733.81;4947104;28;20198;-73
2023/12/25 00:20:35;;;;;;;18.73;9.70;;;;;;;8.05;70.39;96750.41;4948548;28;20655;-73
2023/12/25 00:23:02;;;;;;;20.43;12.07;;;;;;;7.80;70.95;96745.38;4948439;28;20197;-74
2023/12/25 00:25:29;;;;;;;18.97;11.07;;;;;;;7.57;70.21;96709.38;4948203;28;20203;-72
2023/12/25 00:27:56;;;;;;;16.00;10.57;;;;;;;7.75;70.47;96746.47;4948331;28;20200;-72
2023/12/25 00:30:23;;;;;;;18.33;11.00;;;;;;;7.79;70.59;96748.03;4948275;28;20688;-74
2023/12/25 00:32:50;;;;;;;17.33;10.53;;;;;;;7.69;70.04;96750.09;4948344;28;20193;-73
2023/12/25 00:35:18;;;;;;;14.63;9.03;;;;;;;7.58;70.55;96736.81;4948230;28;20618;-72
2023/12/25 00:37:45;;;;;;;20.40;10.03;;;;;;;7.54;70.25;96752.44;4946828;28;20263;-73
2023/12/25 00:40:12;;;;;;;16.60;10.50;;;;;;;7.40;71.38;96732.34;4948260;28;20230;-73
2023/12/25 00:42:39;;;;;;;19.60;10.67;;;;;;;7.19;72.19;96710.81;4948293;28;20197;-72
2023/12/25 00:45:07;;;;;;;13.43;9.00;;;;;;;7.21;70.56;96729.63;4948293;28;20223;-74
2023/12/25 00:47:34;;;;;;;16.73;8.30;;;;;;;7.17;71.05;96748.66;4948176;28;20569;-72
2023/12/25 00:50:02;;;;;;;9.83;7.03;;;;;;;6.95;72.04;96749.50;4946338;29;20331;-72
2023/12/25 00:52:29;;;;;;;11.23;7.00;;;;;;;6.66;73.86;96747.97;4946577;29;20216;-72
2023/12/25 00:54:56;;;;;;;13.03;6.07;;;;;;;6.62;74.18;96748.13;4946663;28;20752;-74
2023/12/25 00:57:23;;;;;;;9.13;5.13;;;;;;;6.71;73.88;96752.97;4946769;29;20260;-72
2023/12/25 00:59:51;;;;;;;9.30;5.73;;;;;;;6.80;74.08;96742.38;4947882;28;20287;-72
2023/12/25 01:02:19;;;;;;;7.87;5.40;;;;;;;6.94;74.49;96747.84;4930714;29;20884;-72
2023/12/25 01:04:46;;;;;;;7.07;4.80;;;;;;;6.95;73.97;96723.78;4947635;28;20204;-71
2023/12/25 01:07:13;;;;;;;9.27;4.93;;;;;;;7.08;72.26;96720.72;4948084;28;20303;-73
2023/12/25 01:09:40;;;;;;;11.13;5.57;;;;;;;6.98;73.01;96713.38;4946361;29;20195;-72
2023/12/25 01:12:09;;;;;;;11.37;5.80;;;;;;;7.05;72.58;96720.81;4947468;28;20286;-72
2023/12/25 01:14:37;;;;;;;7.20;5.60;;;;;;;7.15;72.63;96703.31;4930397;28;20251;-72
2023/12/25 01:17:05;;;;;;;13.63;7.43;;;;;;;7.11;72.15;96707.69;4946519;29;20196;-71
2023/12/25 01:19:32;;;;;;;12.20;6.70;;;;;;;6.90;73.64;96700.81;4948021;28;20201;-72
2023/12/25 01:21:59;;;;;;;12.73;7.13;;;;;;;7.01;73.08;96706.38;4946348;28;20195;-71
2023/12/25 01:24:26;;;;;;;10.90;5.70;;;;;;;6.89;73.32;96680.25;4946432;29;20200;-73
2023/12/25 01:26:54;;;;;;;9.90;6.43;;;;;;;6.97;73.43;96698.81;4947509;28;20211;-73
2023/12/25 01:29:21;;;;;;;8.90;6.40;;;;;;;6.99;72.51;96704.75;4962422;28;20290;-71
2023/12/25 01:31:48;;;;;;;7.23;5.57;;;;;;;6.76;72.64;96671.31;4946203;29;20187;-71
2023/12/25 01:34:15;;;;;;;11.33;7.10;;;;;;;7.09;72.67;96700.97;4945943;28;20228;-72
2023/12/25 01:36:42;;;;;;;13.97;7.17;;;;;;;6.97;72.51;96688.50;4946183;28;20191;-72
2023/12/25 01:39:12;;;;;;;11.17;6.10;;;;;;;6.97;72.52;96683.38;4947534;28;20286;-73
2023/12/25 01:41:39;;;;;;;16.60;8.77;;;;;;;6.86;73.01;96682.94;4947953;28;20191;-73
2023/12/25 01:44:06;;;;;;;13.43;7.83;;;;;;;6.96;72.47;96687.69;4947626;28;20197;-72
2023/12/25 01:46:47;;;;;;;13.77;7.63;;;;;;;6.96;72.85;96666.25;4947552;28;20222;-72
2023/12/25 01:49:14;;;;;;;17.17;8.67;;;;;;;6.88;72.18;96688.88;4947270;28;20195;-73
2023/12/25 01:51:42;;;;;;;17.73;8.23;;;;;;;6.62;72.45;96678.66;4947479;28;20271;-74
2023/12/25 01:54:09;;;;;;;13.40;7.13;;;;;;;6.16;74.32;96690.56;4947555;28;20334;-74
2023/12/25 01:56:36;;;;;;;15.10;7.57;;;;;;;6.25;74.73;96687.69;4946307;29;20198;-72
2023/12/25 01:59:04;;;;;;;10.43;6.17;;;;;;;6.22;74.50;96690.34;4978413;28;20193;-72
2023/12/25 02:01:31;;;;;;;8.83;5.87;;;;;;;6.18;76.10;96696.50;4945800;28;20759;-72
2023/12/25 02:03:58;;;;;;;11.67;5.63;;;;;;;6.28;76.29;96684.19;4947771;28;20215;-72
2023/12/25 02:06:27;;;;;;;12.80;5.80;;;;;;;6.47;74.75;96692.94;4946411;28;20867;-75
2023/12/25 02:08:55;;;;;;;7.70;4.73;;;;;;;6.33;75.24;96687.41;4946151;28;20201;-75
2023/12/25 02:11:22;;;;;;;7.80;4.40;;;;;;;6.27;75.88;96685.06;4947576;28;20206;-75
2023/12/25 02:13:51;;;;;;;7.60;5.07;;;;;;;6.23;75.88;96692.06;4947680;28;20659;-74
2023/12/25 02:16:19;;;;;;;7.23;4.47;;;;;;;6.26;75.93;96691.97;4946251;29;20195;-75
2023/12/25 02:18:47;;;;;;;5.70;4.27;;;;;;;6.21;75.84;96686.13;4946235;28;20278;-75
2023/12/25 02:21:34;;;;;;;7.93;4.60;;;;;;;6.30;75.42;96695.25;4933221;28;20221;-74
2023/12/25 02:24:07;;;;;;;9.60;4.80;;;;;;;6.26;75.62;96686.81;4947742;28;20266;-75
2023/12/25 02:26:34;;;;;;;7.93;5.00;;;;;;;6.49;75.60;96696.31;4935322;28;20203;-74
2023/12/25 02:29:01;;;;;;;6.87;4.80;;;;;;;6.62;75.04;96674.38;4951184;28;20203;-74
2023/12/25 02:31:29;;;;;;;6.40;4.73;;;;;;;6.53;75.97;96682.44;4966581;28;20220;-73
2023/12/25 02:33:56;;;;;;;6.90;4.67;;;;;;;6.76;74.64;96697.06;4934225;28;20234;-71
2023/12/25 02:36:23;;;;;;;11.57;5.73;;;;;;;6.71;74.43;96699.78;4951593;28;20200;-71
2023/12/25 02:38:51;;;;;;;6.67;4.80;;;;;;;6.69;74.83;96691.28;4951127;28;20203;-72
2023/12/25 02:41:19;;;;;;;8.00;5.63;;;;;;;6.51;74.74;96687.63;4951116;28;20223;-72
2023/12/25 02:43:46;;;;;;;16.03;6.93;;;;;;;6.72;74.32;96704.00;4948630;28;20189;-72
2023/12/25 02:46:13;;;;;;;12.37;7.03;;;;;;;6.73;73.79;96703.13;4949097;28;20202;-73
2023/12/25 02:48:40;;;;;;;17.97;8.10;;;;;;;6.60;74.23;96694.16;4950458;28;20204;-74
2023/12/25 02:51:07;;;;;;;19.07;9.97;;;;;;;6.68;74.92;96696.50;4950331;28;20677;-72
2023/12/25 02:53:34;;;;;;;19.20;10.17;;;;;;;6.74;73.67;96696.28;4950247;28;20577;-71
2023/12/25 02:56:02;;;;;;;19.50;9.90;;;;;;;6.50;74.08;96691.09;4980730;28;20195;-72
2023/12/25 02:58:29;;;;;;;22.27;9.80;;;;;;;6.34;74.64;96694.25;4949732;28;20357;-72
2023/12/25 03:00:56;;;;;;;23.37;9.00;;;;;;;6.30;74.80;96674.69;4949673;28;20235;-72
2023/12/25 03:03:25;;;;;;;16.57;9.77;;;;;;;6.33;74.57;96677.13;4932673;29;20659;-73
2023/12/25 03:05:52;;;;;;;13.13;6.93;;;;;;;6.42;73.90;96672.53;4950165;28;20200;-73
2023/12/25 03:08:20;;;;;;;10.07;5.57;;;;;;;6.31;74.36;96666.91;4950502;28;20538;-72
2023/12/25 03:10:47;;;;;;;9.87;5.47;;;;;;;6.38;74.91;96673.53;4948424;28;20195;-74
2023/12/25 03:13:14;;;;;;;8.90;5.27;;;;;;;6.34;75.15;96683.97;4949687;28;20192;-73
2023/12/25 03:15:41;;;;;;;7.13;4.93;;;;;;;6.31;74.72;96686.63;4948192;28;20238;-75
2023/12/25 03:18:08;;;;;;;11.60;5.43;;;;;;;6.15;74.22;96673.47;4949535;28;21107;-72
2023/12/25 03:20:36;;;;;;;12.50;6.30;;;;;;;6.09;75.10;96683.97;4948073;28;20210;-72
2023/12/25 03:23:03;;;;;;;14.23;7.07;;;;;;;6.12;74.38;96673.56;4948238;28;20651;-72
2023/12/25 03:25:30;;;;;;;9.90;6.33;;;;;;;6.04;75.81;96679.88;4949542;28;20263;-71
2023/12/25 03:27:57;;;;;;;9.53;6.73;;;;;;;5.88;75.93;96664.13;4948098;29;20212;-72
2023/12/25 03:30:24;;;;;;;10.73;6.27;;;;;;;5.88;75.28;96666.69;4949443;28;20195;-73
2023/12/25 03:32:51;;;;;;;12.47;6.93;;;;;;;6.03;75.28;96666.19;4949323;28;20205;-72
2023/12/25 03:35:18;;;;;;;19.53;11.00;;;;;;;6.05;75.38;96672.13;4948851;28;20221;-73
2023/12/25 03:37:46;;;;;;;19.10;8.30;;;;;;;5.88;75.07;96678.69;4947787;29;20187;-72
2023/12/25 03:40:13;;;;;;;11.57;7.30;;;;;;;5.76;75.58;96667.94;4947939;29;20670;-72
2023/12/25 03:42:40;;;;;;;9.90;5.80;;;;;;;5.63;75.99;96668.34;4948956;28;20204;-72
2023/12/25 03:45:07;;;;;;;9.43;5.50;;;;;;;5.47;76.04;96647.47;4949143;28;20680;-72
2023/12/25 03:47:35;;;;;;;10.10;6.23;;;;;;;5.62;76.88;96664.13;4947740;28;20260;-72
2023/12/25 03:50:04;;;;;;;10.27;6.50;;;;;;;5.61;75.86;96680.41;4947845;29;20258;-72
2023/12/25 03:52:31;;;;;;;11.07;6.10;;;;;;;5.58;75.93;96683.09;4949049;28;20281;-73
2023/12/25 03:54:58;;;;;;;11.90;6.43;;;;;;;5.49;76.58;96673.94;4947512;28;20689;-73
2023/12/25 03:57:29;;;;;;;23.33;9.47;;;;;;;5.61;76.25;96672.69;4948682;28;20196;-73
2023/12/25 03:59:58;;;;;;;12.17;5.90;;;;;;;5.49;75.73;96685.94;4948549;28;20249;-73
2023/12/25 04:02:25;;;;;;;8.63;5.87;;;;;;;5.46;76.53;96681.72;4947359;29;20226;-73
2023/12/25 04:04:53;;;;;;;11.90;5.97;;;;;;;5.61;76.27;96665.00;4979609;28;20198;-75
2023/12/25 04:07:20;;;;;;;9.00;5.40;;;;;;;5.51;76.45;96668.75;4948517;28;20222;-73
2023/12/25 04:09:47;;;;;;;12.17;5.60;;;;;;;5.65;77.23;96676.84;4948818;28;20577;-72
2023/12/25 04:12:14;;;;;;;12.53;5.57;;;;;;;5.70;76.08;96677.56;4947155;28;20301;-72
2023/12/25 04:14:42;;;;;;;12.93;6.77;;;;;;;5.65;76.22;96671.72;4947160;28;20257;-72
2023/12/25 04:17:09;;;;;;;9.80;5.57;;;;;;;5.72;76.64;96662.94;4948812;28;20225;-73
2023/12/25 04:19:36;;;;;;;14.50;6.40;;;;;;;5.82;76.15;96684.84;4948611;28;20708;-74
2023/12/25 04:22:03;;;;;;;8.07;4.93;;;;;;;5.75;76.36;96688.50;4947346;29;20279;-73
2023/12/25 04:24:31;;;;;;;9.37;5.00;;;;;;;5.80;77.18;96686.63;4946808;29;20194;-75
2023/12/25 04:26:58;;;;;;;6.73;5.00;;;;;;;5.87;76.68;96685.59;4946991;29;20289;-72
2023/12/25 04:29:25;;;;;;;8.67;5.03;;;;;;;5.97;75.86;96696.41;4948358;28;20203;-71
2023/12/25 04:31:52;;;;;;;6.60;4.57;;;;;;;5.91;76.46;96705.16;4946678;28;20197;-72
2023/12/25 04:34:19;;;;;;;12.03;6.67;;;;;;;5.83;76.26;96707.09;4948345;28;20282;-73
2023/12/25 04:36:47;;;;;;;11.77;6.60;;;;;;;5.48;75.84;96684.28;4948610;28;20199;-73
2023/12/25 04:39:14;;;;;;;12.73;7.47;;;;;;;5.61;77.01;96701.81;4947006;28;20265;-73
2023/12/25 04:41:41;;;;;;;10.77;5.50;;;;;;;5.18;76.63;96644.13;4946795;29;20201;-73
2023/12/25 04:44:10;;;;;;;9.33;6.93;;;;;;;5.48;76.19;96695.34;4930765;28;20691;-72
2023/12/25 04:46:39;;;;;;;14.20;7.67;;;;;;;5.53;77.18;96701.22;4948005;28;20246;-72
2023/12/25 04:49:07;;;;;;;15.07;7.77;;;;;;;5.49;76.05;96703.91;4946339;28;20626;-72
2023/12/25 04:51:34;;;;;;;9.63;5.93;;;;;;;5.27;76.63;96702.91;4946591;28;20710;-72
2023/12/25 04:54:02;;;;;;;12.23;6.53;;;;;;;5.18;76.49;96695.47;4930649;28;20225;-73
2023/12/25 04:56:29;;;;;;;9.70;6.23;;;;;;;5.13;77.20;96689.66;4946860;28;20194;-73
2023/12/25 04:58:57;;;;;;;10.67;6.40;;;;;;;5.19;76.80;96682.63;4946617;29;20263;-73
2023/12/25 05:01:26;;;;;;;16.17;8.00;;;;;;;5.08;76.41;96671.81;4946326;28;20757;-74
2023/12/25 05:03:56;;;;;;;14.30;8.13;;;;;;;5.19;76.26;96695.44;4947599;28;20194;-73
2023/12/25 05:06:23;;;;;;;14.10;7.83;;;;;;;5.49;76.24;96720.16;4946294;29;20288;-72
2023/12/25 05:08:50;;;;;;;14.27;9.23;;;;;;;5.47;76.33;96709.09;4946329;29;20209;-72
2023/12/25 05:11:17;;;;;;;17.17;9.00;;;;;;;5.57;75.25;96705.34;4946429;29;20194;-72
2023/12/25 05:13:45;;;;;;;14.83;7.10;;;;;;;5.45;76.71;96700.59;4946517;28;20203;-73
2023/12/25 05:16:13;;;;;;;11.03;6.63;;;;;;;5.57;76.03;96707.06;4946434;28;20239;-71
2023/12/25 05:18:40;;;;;;;12.07;6.13;;;;;;;5.60;76.36;96718.13;4947659;28;20632;-74
2023/12/25 05:21:08;;;;;;;10.87;5.93;;;;;;;5.37;76.47;96706.88;4946366;29;20597;-73
2023/12/25 05:23:35;;;;;;;9.00;6.23;;;;;;;5.18;76.91;96709.16;4947572;28;20189;-73
2023/12/25 05:26:02;;;;;;;10.17;6.13;;;;;;;5.01;76.17;96651.53;4947626;28;20266;-72
2023/12/25 05:28:29;;;;;;;16.20;8.37;;;;;;;5.30;76.52;96701.06;4946113;28;20805;-75
2023/12/25 05:30:56;;;;;;;9.80;6.53;;;;;;;5.25;76.65;96704.69;4947701;28;20581;-74
2023/12/25 05:33:23;;;;;;;11.77;7.47;;;;;;;5.36;76.75;96716.28;4947372;28;20283;-74
2023/12/25 05:35:50;;;;;;;11.63;7.70;;;;;;;5.39;76.94;96699.97;4947565;28;20227;-73
2023/12/25 05:38:17;;;;;;;9.20;6.20;;;;;;;5.33;76.53;96695.00;4947658;28;20198;-73
2023/12/25 05:40:47;;;;;;;9.47;5.90;;;;;;;5.28;76.64;96700.28;4947436;28;20230;-74
2023/12/25 05:43:14;;;;;;;10.17;7.03;;;;;;;5.25;77.47;96696.97;4947642;28;20686;-74
2023/12/25 05:45:41;;;;;;;10.70;6.30;;;;;;;5.41;77.74;96693.91;4947340;28;20667;-74
2023/12/25 05:48:09;;;;;;;9.87;6.50;;;;;;;5.53;77.00;96702.94;4947669;28;20203;-75
2023/12/25 05:50:36;;;;;;;14.53;7.10;;;;;;;5.53;77.46;96697.78;4947614;28;20187;-76
2023/12/25 05:53:04;;;;;;;12.30;7.27;;;;;;;5.66;76.46;96693.97;4947578;28;20195;-74
2023/12/25 05:55:31;;;;;;;9.60;6.40;;;;;;;5.78;76.52;96685.84;4947468;28;20219;-75
2023/12/25 05:57:58;;;;;;;11.80;7.20;;;;;;;5.81;75.89;96670.34;4947046;28;20232;-72
2023/12/25 06:00:25;;;;;;;12.20;7.83;;;;;;;5.71;75.49;96653.53;4950451;28;20315;-72
2023/12/25 06:02:52;;;;;;;12.50;8.40;;;;;;;5.70;76.02;96668.13;4949724;28;20630;-71
2023/12/25 06:05:19;;;;;;;15.20;8.50;;;;;;;5.74;76.22;96681.69;4950539;28;20246;-71
2023/12/25 06:07:46;;;;;;;18.13;8.93;;;;;;;5.93;76.42;96682.81;4950818;28;20195;-72
2023/12/25 06:10:13;;;;;;;14.67;10.03;;;;;;;5.83;76.58;96686.56;4950927;28;20209;-73
2023/12/25 06:12:40;;;;;;;17.27;9.80;;;;;;;5.65;76.00;96700.81;4950697;28;20254;-72
2023/12/25 06:15:08;;;;;;;19.30;10.13;;;;;;;5.55;76.37;96702.00;4949153;29;20658;-73
2023/12/25 06:17:36;;;;;;;14.63;9.27;;;;;;;5.63;76.79;96704.31;4950444;28;20201;-72
2023/12/25 06:20:04;;;;;;;19.30;11.73;;;;;;;5.67;76.31;96703.31;4950671;28;20228;-71
2023/12/25 06:22:45;;;;;;;14.43;10.50;;;;;;;5.74;76.06;96695.41;4950424;28;20211;-73
2023/12/25 06:25:12;;;;;;;18.80;11.57;;;;;;;6.00;76.14;96699.69;4950335;28;20253;-72
2023/12/25 06:27:39;;;;;;;21.73;12.10;;;;;;;6.01;75.35;96696.25;4950426;28;20250;-72
2023/12/25 06:30:24;;;;;;;21.63;11.83;;;;;;;6.22;75.11;96715.25;4948838;28;20214;-73
2023/12/25 06:32:52;;;;;;;18.57;10.93;;;;;;;6.30;75.49;96714.09;4950382;28;20581;-72
2023/12/25 06:35:19;;;;;;;16.83;9.97;;;;;;;6.24;74.75;96723.75;4950432;28;20712;-73
2023/12/25 06:37:46;;;;;;;18.67;11.53;;;;;;;6.26;75.67;96722.81;4950218;28;20253;-73
2023/12/25 06:40:14;;;;;;;26.90;12.53;;;;;;;6.49;75.05;96719.44;4950477;28;20224;-72
2023/12/25 06:42:41;;;;;;;17.57;10.63;;;;;;;6.62;74.46;96714.69;4950345;28;20202;-74
2023/12/25 06:45:08;;;;;;;16.20;10.60;;;;;;;6.67;73.56;96726.50;4950007;28;20596;-73
2023/12/25 06:47:35;;;;;;;17.20;9.97;;;;;;;6.55;73.82;96737.25;4949977;28;20228;-73
2023/12/25 06:50:03;;;;;;;24.33;11.27;;;;;;;6.44;74.08;96736.75;4948866;28;20198;-73
2023/12/25 06:52:30;;;;;;;19.70;10.97;;;;;;;6.41;74.09;96747.13;4949950;28;20207;-73
2023/12/25 06:54:58;;;;;;;17.40;11.17;;;;;;;6.69;74.36;96752.19;4949550;28;20242;-74
2023/12/25 06:57:25;;;;;;;17.10;10.87;;;;;;;6.84;74.05;96746.50;4949736;28;20619;-76
2023/12/25 06:59:52;;;;;;;20.33;10.60;;;;;;;6.95;73.02;96752.09;4949303;28;20210;-74
2023/12/25 07:02:21;;;;;;;19.87;11.80;;;;;;;7.03;73.96;96753.50;4949745;28;20201;-73
2023/12/25 07:04:49;;;;;;;26.13;12.23;;;;;;;7.09;72.81;96752.44;4949709;28;20301;-73
2023/12/25 07:07:16;;;;;;;18.90;10.97;;;;;;;7.35;72.55;96744.59;4980446;28;20208;-75
2023/12/25 07:09:46;;;;;;;23.63;10.77;;;;;;;7.42;72.39;96735.72;4949644;28;20219;-73
2023/12/25 07:12:14;;;;;;;50.20;25.30;;;;;;;7.65;72.07;96735.66;4949173;28;20283;-72
2023/12/25 07:14:47;;;;;;;31.23;17.63;;;;;;;7.80;71.84;96747.97;4949361;28;20686;-73
2023/12/25 07:17:14;;;;;;;29.17;17.47;;;;;;;7.87;71.92;96753.72;4949649;28;20579;-75
2023/12/25 07:19:41;;;;;;;32.33;18.43;;;;;;;8.04;70.70;96751.28;4949765;28;20277;-73
2023/12/25 07:22:09;;;;;;;31.33;17.63;;;;;;;8.09;71.29;96741.63;4949660;28;20201;-73
2023/12/25 07:24:36;;;;;;;36.37;22.07;;;;;;;8.22;70.93;96748.78;4949807;28;20224;-75
2023/12/25 07:27:05;;;;;;;31.90;17.93;;;;;;;7.88;70.57;96684.03;4949450;28;20207;-73
2023/12/25 07:29:34;;;;;;;29.97;17.70;;;;;;;8.27;70.67;96732.31;4949191;28;20200;-74
2023/12/25 07:32:01;;;;;;;29.57;17.90;;;;;;;8.30;70.84;96753.69;4949422;28;20201;-74
2023/12/25 07:34:55;;;;;;;34.37;17.57;;;;;;;8.45;70.43;96754.78;4949100;28;20186;-75
2023/12/25 07:37:22;;;;;;;31.63;19.03;;;;;;;8.51;70.59;96736.47;4949052;28;20208;-74
2023/12/25 07:39:52;;;;;;;32.10;17.73;;;;;;;8.69;70.44;96738.25;4949196;28;20203;-72
2023/12/25 07:42:19;;;;;;;28.23;17.40;;;;;;;8.74;69.41;96724.25;4948855;28;20212;-72
2023/12/25 07:44:54;;;;;;;26.60;17.70;;;;;;;8.83;69.78;96733.34;4948816;28;20286;-77
2023/12/25 07:47:35;;;;;;;34.63;19.33;;;;;;;8.78;69.68;96710.28;4934163;28;20707;-77
2023/12/25 07:50:04;;;;;;;26.40;17.83;;;;;;;9.04;69.52;96737.56;4947871;29;20189;-75
2023/12/25 07:52:32;;;;;;;31.50;19.30;;;;;;;9.32;68.75;96766.41;4949201;28;20198;-74
2023/12/25 07:55:00;;;;;;;29.80;16.97;;;;;;;9.58;68.05;96753.13;4947324;29;20189;-75
2023/12/25 07:57:27;;;;;;;27.50;17.27;;;;;;;9.57;68.28;96764.38;4947453;28;20226;-75
2023/12/25 07:59:54;;;;;;;32.17;18.73;;;;;;;9.69;68.19;96747.44;4946781;28;20208;-74
2023/12/25 08:02:22;;;;;;;30.80;18.70;;;;;;;9.66;67.65;96740.69;4947010;29;20707;-73
2023/12/25 08:04:49;;;;;;;27.93;17.77;;;;;;;9.80;67.75;96737.44;4948575;28;20189;-73
2023/12/25 08:07:17;;;;;;;31.43;18.37;;;;;;;10.11;67.54;96773.06;4948537;28;20209;-73
2023/12/25 08:09:44;;;;;;;27.17;16.50;;;;;;;10.13;67.72;96768.66;4948905;28;20193;-75
2023/12/25 08:12:12;;;;;;;25.47;17.43;;;;;;;10.23;67.30;96769.88;4948735;28;20285;-72
2023/12/25 08:14:40;;;;;;;22.10;13.73;;;;;;;10.37;66.01;96750.19;4948958;28;20201;-73
2023/12/25 08:17:08;;;;;;;11.07;6.60;;;;;;;11.13;62.09;96767.00;4948428;28;20257;-76
2023/12/25 08:19:37;;;;;;;9.90;5.03;;;;;;;11.52;60.88;96756.28;4979042;28;20193;-76
2023/12/25 08:22:04;;;;;;;9.97;5.87;;;;;;;11.76;60.05;96761.00;4947356;28;20641;-76
2023/12/25 08:24:31;;;;;;;9.93;4.20;;;;;;;11.97;59.17;96751.19;4949070;28;20299;-75
2023/12/25 08:26:59;;;;;;;9.17;4.43;;;;;;;12.11;57.86;96757.28;4948499;28;20710;-77
2023/12/25 08:29:26;;;;;;;9.63;5.83;;;;;;;12.27;58.70;96768.47;4946991;28;20201;-71
2023/12/25 08:31:55;;;;;;;27.27;13.07;;;;;;;12.01;60.41;96753.50;4946872;28;20193;-74
2023/12/25 08:34:23;;;;;;;26.50;14.10;;;;;;;12.11;60.71;96767.69;4946903;29;20256;-74
2023/12/25 08:36:50;;;;;;;19.77;11.30;;;;;;;12.10;60.95;96758.19;4947140;28;20242;-74
2023/12/25 08:39:17;;;;;;;24.53;13.60;;;;;;;12.01;61.29;96768.28;4948201;28;20670;-73
2023/12/25 08:41:45;;;;;;;21.17;12.57;;;;;;;12.22;60.22;96769.63;4948375;28;20189;-73
2023/12/25 08:44:15;;;;;;;24.53;12.50;;;;;;;12.25;61.19;96779.88;4979290;28;20264;-75
2023/12/25 08:46:46;;;;;;;21.83;13.40;;;;;;;12.16;61.42;96768.25;4946749;28;20693;-76
2023/12/25 08:49:13;;;;;;;23.03;11.33;;;;;;;11.70;63.84;96765.69;4948222;28;20600;-75
2023/12/25 08:51:41;;;;;;;19.87;10.00;;;;;;;11.78;64.34;96784.25;4947785;28;20222;-72
2023/12/25 08:54:08;;;;;;;13.23;8.83;;;;;;;11.62;64.23;96762.63;4946491;28;20200;-75
2023/12/25 08:56:35;;;;;;;16.67;8.40;;;;;;;11.82;63.66;96765.00;4947887;28;20262;-72
2023/12/25 08:59:05;;;;;;;16.83;7.53;;;;;;;11.91;62.82;96770.53;4947671;28;20286;-77
2023/12/25 09:01:33;;;;;;;13.17;7.47;;;;;;;11.66;64.09;96757.25;4978708;28;20239;-77
2023/12/25 09:04:01;;;;;;;10.73;6.43;;;;;;;11.89;63.22;96748.19;4930686;28;20201;-73
2023/12/25 09:06:28;;;;;;;15.53;7.43;;;;;;;12.29;61.67;96768.38;4948098;28;20722;-75
2023/12/25 09:08:55;;;;;;;12.87;6.23;;;;;;;12.31;61.01;96745.75;4946400;28;20589;-75
2023/12/25 09:11:22;;;;;;;9.87;6.53;;;;;;;12.66;60.34;96761.91;4947698;28;20200;-73
2023/12/25 09:13:50;;;;;;;14.40;7.30;;;;;;;12.55;60.28;96751.31;4947484;28;20206;-77
2023/12/25 09:16:18;;;;;;;14.07;6.77;;;;;;;12.33;60.63;96746.50;4947808;28;20666;-77
2023/12/25 09:18:46;;;;;;;8.43;6.10;;;;;;;12.59;59.72;96755.41;4945858;28;20750;-77
2023/12/25 09:21:17;;;;;;;13.70;6.67;;;;;;;12.51;59.98;96723.84;4978781;28;20609;-77
2023/12/25 09:23:44;;;;;;;9.87;6.10;;;;;;;12.68;59.85;96732.31;4948395;28;20265;-76
2023/12/25 09:26:20;;;;;;;11.33;6.33;;;;;;;12.94;58.31;96743.78;4947512;28;20192;-75
2023/12/25 09:28:48;;;;;;;12.53;6.57;;;;;;;13.13;57.66;96739.16;4947267;28;20198;-77
2023/12/25 09:31:15;;;;;;;12.23;6.63;;;;;;;13.27;57.13;96720.13;4977955;28;20192;-77
2023/12/25 09:33:42;;;;;;;17.80;7.53;;;;;;;13.47;56.48;96732.72;4948432;28;20192;-78
2023/12/25 09:36:09;;;;;;;9.27;5.80;;;;;;;13.44;55.83;96715.53;4952111;28;20710;-74
2023/12/25 09:38:38;;;;;;;11.70;7.07;;;;;;;13.65;55.43;96726.38;4950369;28;20204;-74
2023/12/25 09:41:08;;;;;;;8.40;5.77;;;;;;;13.81;55.12;96730.50;4951404;28;20295;-74
2023/12/25 09:43:38;;;;;;;8.93;5.73;;;;;;;13.92;55.04;96724.63;4951273;28;20731;-74
2023/12/25 09:46:06;;;;;;;13.83;6.40;;;;;;;14.13;54.10;96730.22;4951050;28;20306;-72
2023/12/25 09:48:35;;;;;;;11.67;7.37;;;;;;;14.06;54.35;96724.56;4950895;28;20217;-73
2023/12/25 09:51:05;;;;;;;11.23;6.73;;;;;;;14.14;54.00;96716.25;4981665;28;20290;-73
2023/12/25 09:53:32;;;;;;;11.53;6.20;;;;;;;14.14;53.78;96711.88;4951483;28;20258;-76
2023/12/25 09:56:01;;;;;;;10.03;5.83;;;;;;;14.28;53.64;96708.41;4949358;28;20710;-73
2023/12/25 09:58:33;;;;;;;11.40;6.40;;;;;;;14.24;53.50;96702.53;4950154;28;20224;-75
2023/12/25 10:01:02;;;;;;;13.90;7.83;;;;;;;14.35;53.94;96702.72;4950841;28;20319;-75
2023/12/25 10:03:31;;;;;;;13.30;6.70;;;;;;;14.34;53.49;96693.22;4949265;29;20639;-73
2023/12/25 10:05:59;;;;;;;9.20;6.13;;;;;;;14.57;53.18;96708.16;4951733;28;20274;-73
2023/12/25 10:08:29;;;;;;;10.30;5.67;;;;;;;14.39;53.45;96659.88;4970906;28;20208;-74
2023/12/25 10:10:57;;;;;;;10.97;7.03;;;;;;;14.65;53.07;96677.19;4946755;28;20205;-74
2023/12/25 10:13:28;;;;;;;17.77;7.93;;;;;;;14.72;52.94;96690.66;4952072;28;20193;-72
2023/12/25 10:15:55;;;;;;;13.77;8.60;;;;;;;14.84;53.06;96682.00;4950922;28;20693;-73
2023/12/25 10:18:23;;;;;;;17.23;9.00;;;;;;;14.90;52.51;96668.53;4949419;28;20761;-77
2023/12/25 10:20:58;;;;;;;17.53;9.30;;;;;;;14.94;52.21;96674.41;4950602;28;20205;-75
2023/12/25 10:23:29;;;;;;;14.13;8.30;;;;;;;14.96;52.12;96677.75;4950582;28;20197;-75
2023/12/25 10:25:59;;;;;;;16.33;8.53;;;;;;;15.05;51.91;96687.53;4950722;28;20201;-80
2023/12/25 10:28:27;;;;;;;18.00;9.67;;;;;;;15.22;51.51;96685.44;4950835;28;20356;-74
2023/12/25 10:31:06;;;;;;;15.13;8.13;;;;;;;15.25;50.44;96671.34;4950474;28;20186;-76
2023/12/25 10:33:37;;;;;;;17.83;9.43;;;;;;;15.47;50.20;96681.97;4981201;28;20300;-76
2023/12/25 10:36:07;;;;;;;18.10;8.00;;;;;;;15.60;49.12;96680.13;4950339;28;20645;-73
2023/12/25 10:38:44;;;;;;;11.57;5.90;;;;;;;15.61;47.74;96671.38;4949927;28;20198;-77
2023/12/25 10:41:18;;;;;;;8.67;5.97;;;;;;;15.97;45.63;96676.53;4950285;28;20321;-76
2023/12/25 10:43:52;;;;;;;9.83;5.10;;;;;;;15.95;45.11;96673.19;4948452;28;20265;-74
2023/12/25 10:46:24;;;;;;;10.13;5.37;;;;;;;16.09;44.86;96673.00;4947606;28;20691;-76
2023/12/25 10:48:53;;;;;;;9.93;5.13;;;;;;;16.12;44.63;96659.75;4949991;28;20662;-74
2023/12/25 10:51:34;;;;;;;9.43;5.07;;;;;;;16.33;43.86;96659.09;4950192;28;20698;-76
2023/12/25 10:54:03;;;;;;;14.23;5.80;;;;;;;16.51;43.85;96668.19;4949871;28;20198;-73
2023/12/25 10:56:32;;;;;;;12.10;4.93;;;;;;;16.45;43.40;96658.16;4949912;28;20223;-73
2023/12/25 10:59:22;;;;;;;14.47;5.80;;;;;;;16.28;44.22;96657.66;4949889;28;20599;-75
2023/12/25 11:01:52;;;;;;;13.43;6.03;;;;;;;16.39;43.89;96650.78;4949671;28;20312;-75
2023/12/25 11:04:20;;;;;;;13.47;5.57;;;;;;;16.40;43.46;96655.94;4980487;28;20210;-75
2023/12/25 11:06:49;;;;;;;14.40;6.40;;;;;;;16.14;43.53;96600.38;4949855;28;20239;-74
2023/12/25 11:09:17;;;;;;;14.73;6.33;;;;;;;16.58;43.14;96654.56;4949709;28;20191;-74
2023/12/25 11:11:45;;;;;;;10.63;5.40;;;;;;;16.56;43.22;96632.09;4949775;28;20199;-75
2023/12/25 11:14:13;;;;;;;8.37;4.90;;;;;;;16.57;43.61;96639.00;4949698;28;20847;-81
2023/12/25 11:16:40;;;;;;;10.43;4.97;;;;;;;16.61;43.41;96611.69;4949925;28;20292;-74
2023/12/25 11:19:07;;;;;;;9.60;5.20;;;;;;;16.59;43.76;96618.81;4949527;28;20208;-75
2023/12/25 11:21:34;;;;;;;10.10;5.53;;;;;;;16.88;43.70;96649.59;4949493;28;20206;-74
2023/12/25 11:24:02;;;;;;;12.37;6.30;;;;;;;16.70;43.41;96608.34;4948006;29;20647;-76
2023/12/25 11:26:31;;;;;;;10.40;5.60;;;;;;;16.73;43.06;96585.41;4949673;28;20499;-74
2023/12/25 11:29:06;;;;;;;10.67;5.83;;;;;;;17.01;43.36;96645.09;4979867;28;20217;-76
2023/12/25 11:31:45;;;;;;;13.43;6.30;;;;;;;17.37;42.45;96651.03;4949298;28;20648;-74
2023/12/25 11:34:21;;;;;;;14.27;6.53;;;;;;;17.26;42.31;96640.56;4949598;28;20265;-76
2023/12/25 11:36:58;;;;;;;11.80;5.10;;;;;;;17.31;42.23;96646.28;4947671;28;20251;-73